Archival Weather

Tokyo Intl

Tokyo Intl, Japan (RJTT)

Report from: Friday, June 24, 2022 7:30 AM JST
Current time: Tuesday, August 16, 2022 10:29 AM JST

Current weather
Weather history
Weather forecast

Temperature27.0°C (80.6°F)
Heat index30.1°C (86.2°F)
Dew point24.0°C (75.2°F)
Winds 17 kts (8.7 m/s, 19.6 mph) South-Southwest (200°)
Visibility5 mi. (8 km)
Clouds Ceiling: Broken clouds 0 ft. (0 m)
Few clouds 500 ft. (152 m)
Scattered clouds 800 ft. (244 m)
Altimeter29.71 in.Hg (1006 mB)
Relative humidity84 %
Density altitude2,028 ft. (618 m)
Remarks No significant changes expected in the next two hours
Flight conditions Low Instrument Meteorological Conditions
Raw dataRJTT 232230Z 20017KT 8000 FEW005 SCT008 BKN/// 27/24 Q1006 NOSIG
An error has occurred. This application may no longer respond until reloaded. Reload 🗙